首页
METAR-TAF:

METAR-TAF

机场 :

Saint-Yan, 法国

纬度: 46-24-45N, 经度: 004-00-48E, 海拔: 244米

当前天气观测

该预报发布于30分钟前的18:30 UTC
风速2节,风向南转西南
温度 7°C
湿度 70%
气压 1030 hPa
能见度10公里或以上
多云层高于4600英尺
多云层高于6000英尺

METAR: LFLN 181830Z AUTO 20002KT 9999 BKN046 BKN060 07/02 Q1030 NOSIG

时间: 20:00 (19:00 UTC)

预报

该预报发布于2小时和0分钟前的17:00 UTC
预报有效从18日的 18点(UTC)到 19日的 03点(UTC)
风速4节,风向
能见度10公里或以上
少量云层高于3000英尺
多云层高于6000英尺
短暂存在
从 18日的 18点(UTC)到 19日的 03点(UTC)
多云层高于2500英尺
小阵雨
成为
从 18日的 21点(UTC)到 18日的 23点(UTC)
风速10节,风向西转西南

TAF: LFLN 181700Z 1818/1903 19004KT 9999 FEW030 BKN060 TEMPO 1818/1903 -SHRA BKN025 BECMG 1821/1823 25010KT

超过4000个机场的气象观测和天气预报(METAR&TAF报告)。

可查询的气象台以黄色和红色小点在地图上表示。

将鼠标移到小点上方,可查看气象台名称。

然后点击查看天气观测和预报。

如需切换地图:点击带黑十字的绿色按钮放大地图;点击带横线的绿色按钮缩小地图;或者点击绿色箭头查看邻近地区的地图。


METAR-TAF: